createdAt,value
2019-01-30T00:01:34.729Z,31.87
2019-01-30T00:04:06.968Z,37.97
2019-01-30T00:06:37.379Z,30.13
2019-01-30T00:09:09.923Z,34.77
2019-01-30T00:11:40.428Z,30.27
2019-01-30T00:14:23.083Z,34.13
2019-01-30T00:16:53.526Z,32.43
2019-01-30T00:19:23.803Z,31.17
2019-01-30T00:21:54.210Z,35.07
2019-01-30T00:24:24.554Z,31.37
2019-01-30T00:26:55.402Z,37.87
2019-01-30T00:29:25.769Z,33.83
2019-01-30T00:31:57.464Z,32.63
2019-01-30T00:34:27.811Z,47.40
2019-01-30T00:36:58.210Z,38.80
2019-01-30T00:39:28.566Z,41.33
2019-01-30T00:41:59.399Z,39.03
2019-01-30T00:44:29.759Z,40.80
2019-01-30T00:47:00.226Z,56.17
2019-01-30T00:49:30.574Z,42.37
2019-01-30T00:52:00.970Z,42.50
2019-01-30T00:54:32.161Z,46.23
2019-01-30T00:57:02.918Z,44.60
2019-01-30T00:59:33.276Z,45.43
2019-01-30T01:02:03.646Z,41.97
2019-01-30T01:04:34.014Z,45.67
2019-01-30T01:07:04.524Z,50.57
2019-01-30T01:09:34.883Z,47.30
2019-01-30T01:12:05.490Z,41.97
2019-01-30T01:14:35.843Z,42.40
2019-01-30T01:17:06.242Z,43.37
2019-01-30T01:19:36.590Z,43.37
2019-01-30T01:22:07.000Z,50.83
2019-01-30T01:24:37.350Z,47.93
2019-01-30T01:27:07.786Z,45.73
2019-01-30T01:29:38.162Z,45.03
2019-01-30T01:32:08.559Z,46.80
2019-01-30T01:34:38.913Z,44.20
2019-01-30T01:37:09.386Z,50.97
2019-01-30T01:39:39.727Z,56.40
2019-01-30T01:42:10.214Z,46.00
2019-01-30T01:44:40.583Z,53.13
2019-01-30T01:47:10.982Z,44.83
2019-01-30T01:49:41.350Z,43.67
2019-01-30T01:52:12.155Z,51.13
2019-01-30T01:54:42.508Z,46.33
2019-01-30T01:57:12.970Z,44.63
2019-01-30T01:59:43.316Z,48.13
2019-01-30T02:02:13.675Z,46.83
2019-01-30T02:04:44.050Z,43.33
2019-01-30T02:07:14.414Z,46.43
2019-01-30T02:09:44.794Z,51.07
2019-01-30T02:12:15.142Z,44.03
2019-01-30T02:14:45.538Z,52.00
2019-01-30T02:17:15.893Z,52.67
2019-01-30T02:19:46.358Z,46.73
2019-01-30T02:22:16.706Z,46.10
2019-01-30T02:24:47.126Z,48.17
2019-01-30T02:27:17.654Z,55.80
2019-01-30T02:29:48.042Z,59.63
2019-01-30T02:32:18.401Z,57.60
2019-01-30T02:34:48.771Z,61.97
2019-01-30T02:37:19.167Z,60.27
2019-01-30T02:39:49.522Z,82.17
2019-01-30T02:42:19.892Z,83.80
2019-01-30T02:44:50.270Z,77.47
2019-01-30T02:47:20.656Z,86.83
2019-01-30T02:49:51.018Z,80.83
2019-01-30T02:52:21.394Z,72.47
2019-01-30T02:54:51.759Z,86.47
2019-01-30T02:57:23.183Z,75.97
2019-01-30T02:59:53.541Z,77.60
2019-01-30T03:02:24.365Z,91.47
2019-01-30T03:04:54.722Z,96.27
2019-01-30T03:07:25.126Z,89.20
2019-01-30T03:09:55.463Z,90.30
2019-01-30T03:12:25.917Z,83.90
2019-01-30T03:14:56.273Z,85.00
2019-01-30T03:17:26.641Z,87.00
2019-01-30T03:19:57.011Z,84.20
2019-01-30T03:22:27.419Z,82.67
2019-01-30T03:24:57.806Z,79.73
2019-01-30T03:27:28.431Z,70.17
2019-01-30T03:29:58.785Z,73.70
2019-01-30T03:32:29.219Z,66.57
2019-01-30T03:34:59.582Z,77.77
2019-01-30T03:37:29.998Z,65.00
2019-01-30T03:40:00.359Z,77.10
2019-01-30T03:42:30.737Z,61.83
2019-01-30T03:45:01.115Z,63.07
2019-01-30T03:47:31.468Z,64.97
2019-01-30T03:50:01.934Z,61.37
2019-01-30T03:52:32.288Z,64.00
2019-01-30T03:55:02.723Z,56.20
2019-01-30T03:57:33.075Z,68.20
2019-01-30T04:00:03.494Z,69.20
2019-01-30T04:02:33.858Z,71.33
2019-01-30T04:05:04.362Z,66.67
2019-01-30T04:07:34.710Z,77.80
2019-01-30T04:10:06.454Z,62.00
2019-01-30T04:12:37.169Z,66.87
2019-01-30T04:15:08.570Z,71.30
2019-01-30T04:17:38.926Z,63.03
2019-01-30T04:20:10.556Z,79.57
2019-01-30T04:22:40.902Z,78.77
2019-01-30T04:25:11.761Z,74.30
2019-01-30T04:27:42.193Z,63.63
2019-01-30T04:30:20.838Z,68.43
2019-01-30T04:32:51.266Z,68.40
2019-01-30T04:35:21.635Z,72.73
2019-01-30T04:37:52.274Z,63.43
2019-01-30T04:40:22.800Z,70.40
2019-01-30T04:42:53.263Z,71.03
2019-01-30T04:45:24.926Z,70.97
2019-01-30T04:47:55.338Z,66.90
2019-01-30T04:50:25.703Z,58.27
2019-01-30T04:52:56.162Z,60.77
2019-01-30T04:55:26.561Z,65.33
2019-01-30T04:57:58.247Z,62.50
2019-01-30T05:00:28.827Z,60.57
2019-01-30T05:02:59.238Z,55.87
2019-01-30T05:05:29.592Z,51.37
2019-01-30T05:07:59.991Z,51.43
2019-01-30T05:10:30.334Z,50.37
2019-01-30T05:13:00.727Z,48.63
2019-01-30T05:15:31.106Z,49.17
2019-01-30T05:18:01.478Z,48.37
2019-01-30T05:20:31.862Z,47.87
2019-01-30T05:23:02.219Z,48.87
2019-01-30T05:25:32.603Z,48.10
2019-01-30T05:28:03.082Z,44.40
2019-01-30T05:30:34.203Z,44.70
2019-01-30T05:33:04.548Z,42.73
2019-01-30T05:35:34.959Z,40.70
2019-01-30T05:38:05.398Z,44.87
2019-01-30T05:40:35.758Z,41.60
2019-01-30T05:43:06.128Z,40.47
2019-01-30T05:45:36.498Z,40.57
2019-01-30T05:48:06.877Z,38.33
2019-01-30T05:50:37.228Z,35.37
2019-01-30T05:53:07.597Z,39.20
2019-01-30T05:55:37.941Z,38.70
2019-01-30T05:58:08.648Z,41.20
2019-01-30T06:00:43.029Z,42.80
2019-01-30T06:03:13.681Z,38.30
2019-01-30T06:05:45.095Z,36.87
2019-01-30T06:08:15.563Z,36.93
2019-01-30T06:10:46.196Z,35.80
2019-01-30T06:13:16.606Z,29.17
2019-01-30T06:15:46.955Z,34.00
2019-01-30T06:18:17.499Z,34.67
2019-01-30T06:20:47.830Z,33.10
2019-01-30T06:23:18.567Z,34.43
2019-01-30T06:25:48.918Z,34.10
2019-01-30T06:28:19.388Z,35.63
2019-01-30T06:30:50.058Z,39.13
2019-01-30T06:33:20.530Z,37.63
2019-01-30T06:35:50.879Z,37.33
2019-01-30T06:38:21.970Z,36.43
2019-01-30T06:40:52.318Z,40.03
2019-01-30T06:43:22.722Z,32.83
2019-01-30T06:45:53.067Z,34.57
2019-01-30T06:48:23.457Z,34.20
2019-01-30T06:50:53.802Z,34.33
2019-01-30T06:53:24.206Z,33.73
2019-01-30T06:55:54.560Z,41.93
2019-01-30T06:58:24.958Z,34.47
2019-01-30T07:00:55.310Z,36.37
2019-01-30T07:03:25.682Z,30.07
2019-01-30T07:05:56.061Z,35.40
2019-01-30T07:08:26.402Z,30.70
2019-01-30T07:10:56.791Z,38.67
2019-01-30T07:13:27.155Z,31.63
2019-01-30T07:15:57.543Z,29.33
2019-01-30T07:18:27.890Z,38.80
2019-01-30T07:20:58.295Z,32.50
2019-01-30T07:23:28.647Z,33.60
2019-01-30T07:25:59.134Z,27.60
2019-01-30T07:28:29.553Z,34.47
2019-01-30T07:31:00.074Z,37.67
2019-01-30T07:33:30.538Z,33.80
2019-01-30T07:36:00.942Z,32.00
2019-01-30T07:38:32.378Z,28.60
2019-01-30T07:41:02.869Z,33.17
2019-01-30T07:43:33.234Z,35.50
2019-01-30T07:46:03.622Z,37.73
2019-01-30T07:48:34.002Z,43.17
2019-01-30T07:51:04.342Z,35.50
2019-01-30T07:53:34.783Z,37.17
2019-01-30T07:56:05.322Z,35.10
2019-01-30T07:58:35.778Z,32.70
2019-01-30T08:01:06.110Z,33.67
2019-01-30T08:03:38.958Z,35.07
2019-01-30T08:06:20.327Z,27.77
2019-01-30T08:08:50.699Z,34.73
2019-01-30T08:11:21.058Z,31.50
2019-01-30T08:13:51.406Z,28.47
2019-01-30T08:16:21.954Z,31.67
2019-01-30T08:18:52.442Z,34.07
2019-01-30T08:21:22.778Z,29.23
2019-01-30T08:23:53.260Z,33.17
2019-01-30T08:26:25.600Z,37.20
2019-01-30T08:28:56.101Z,35.80
2019-01-30T08:31:26.858Z,36.33
2019-01-30T08:33:57.614Z,41.50
2019-01-30T08:36:27.962Z,38.50
2019-01-30T08:38:58.372Z,35.93
2019-01-30T08:41:28.674Z,38.03
2019-01-30T08:43:59.123Z,36.07
2019-01-30T08:46:29.467Z,37.50
2019-01-30T08:48:59.859Z,35.40
2019-01-30T08:51:30.190Z,34.23
2019-01-30T08:54:00.546Z,39.27
2019-01-30T08:56:30.910Z,36.70
2019-01-30T08:59:01.280Z,39.50
2019-01-30T09:01:31.636Z,36.77
2019-01-30T09:04:01.982Z,38.40
2019-01-30T09:06:32.338Z,33.37
2019-01-30T09:09:02.680Z,38.23
2019-01-30T09:11:33.139Z,35.20
2019-01-30T09:14:03.478Z,32.97
2019-01-30T09:16:34.169Z,28.60
2019-01-30T09:19:05.688Z,31.67
2019-01-30T09:21:36.685Z,41.17
2019-01-30T09:24:07.012Z,30.07
2019-01-30T09:26:37.382Z,34.20
2019-01-30T09:29:07.795Z,29.77
2019-01-30T09:31:38.257Z,28.63
2019-01-30T09:34:08.622Z,31.17
2019-01-30T09:36:39.334Z,29.97
2019-01-30T09:39:10.118Z,30.03
2019-01-30T09:41:40.496Z,29.97
2019-01-30T09:44:10.988Z,32.47
2019-01-30T09:46:41.454Z,31.33
2019-01-30T09:49:11.783Z,28.57
2019-01-30T09:51:42.250Z,30.90
2019-01-30T09:54:12.699Z,23.67
2019-01-30T09:56:43.154Z,27.90
2019-01-30T09:59:14.567Z,25.40
2019-01-30T10:01:45.311Z,31.07
2019-01-30T10:04:15.638Z,24.10
2019-01-30T10:06:46.106Z,25.30
2019-01-30T10:09:16.538Z,23.77
2019-01-30T10:11:47.002Z,21.00
2019-01-30T10:14:17.350Z,23.27
2019-01-30T10:16:48.082Z,21.13
2019-01-30T10:19:18.422Z,21.67
2019-01-30T10:21:48.794Z,19.23
2019-01-30T10:24:19.154Z,20.77
2019-01-30T10:26:49.486Z,22.47
2019-01-30T10:29:19.911Z,18.77
2019-01-30T10:31:50.243Z,20.50
2019-01-30T10:34:20.688Z,16.83
2019-01-30T10:36:51.033Z,18.83
2019-01-30T10:39:21.422Z,21.47
2019-01-30T10:41:51.758Z,21.20
2019-01-30T10:44:23.710Z,18.77
2019-01-30T10:46:54.442Z,19.90
2019-01-30T10:49:24.899Z,16.70
2019-01-30T10:51:56.358Z,18.67
2019-01-30T10:54:26.681Z,15.87
2019-01-30T10:56:57.011Z,18.77
2019-01-30T10:59:27.463Z,17.33
2019-01-30T11:01:57.797Z,17.97
2019-01-30T11:04:28.246Z,19.90
2019-01-30T11:06:58.570Z,16.57
2019-01-30T11:09:29.031Z,16.27
2019-01-30T11:11:59.658Z,19.10
2019-01-30T11:14:31.619Z,17.67
2019-01-30T11:17:01.958Z,15.03
2019-01-30T11:19:32.335Z,14.60
2019-01-30T11:22:02.667Z,14.27
2019-01-30T11:24:33.046Z,19.17
2019-01-30T11:27:03.786Z,20.40
2019-01-30T11:29:34.646Z,17.70
2019-01-30T11:32:05.074Z,14.07
2019-01-30T11:34:35.473Z,13.67
2019-01-30T11:37:06.169Z,13.83
2019-01-30T11:39:36.574Z,14.03
2019-01-30T11:42:06.928Z,14.80
2019-01-30T11:44:37.838Z,14.97
2019-01-30T11:47:08.174Z,14.03
2019-01-30T11:49:38.650Z,15.17
2019-01-30T11:52:10.046Z,17.17
2019-01-30T11:54:40.469Z,12.33
2019-01-30T11:57:10.810Z,11.43
2019-01-30T11:59:53.502Z,15.47
2019-01-30T12:02:23.846Z,14.63
2019-01-30T12:04:54.934Z,16.70
2019-01-30T12:07:25.282Z,16.30
2019-01-30T12:09:56.059Z,20.83
2019-01-30T12:12:26.493Z,17.23
2019-01-30T12:14:56.870Z,15.53
2019-01-30T12:17:27.210Z,15.63
2019-01-30T12:19:58.586Z,19.00
2019-01-30T12:22:28.942Z,18.90
2019-01-30T12:24:59.350Z,18.63
2019-01-30T12:27:29.678Z,21.53
2019-01-30T12:30:00.364Z,19.23
2019-01-30T12:32:30.702Z,22.83
2019-01-30T12:35:02.581Z,20.73
2019-01-30T12:37:32.924Z,17.00
2019-01-30T12:40:03.437Z,18.27
2019-01-30T12:42:34.842Z,17.50
2019-01-30T12:45:07.418Z,19.50
2019-01-30T12:47:37.765Z,22.70
2019-01-30T12:50:08.930Z,18.37
2019-01-30T12:52:40.248Z,18.77
2019-01-30T12:55:10.982Z,19.33
2019-01-30T12:57:41.325Z,14.53
2019-01-30T13:00:17.165Z,19.00
2019-01-30T13:02:47.578Z,18.53
2019-01-30T13:05:19.022Z,20.07
2019-01-30T13:07:49.326Z,21.97
2019-01-30T13:10:21.083Z,19.30
2019-01-30T13:12:51.524Z,18.87
2019-01-30T13:15:23.566Z,21.90
2019-01-30T13:17:53.994Z,17.87
2019-01-30T13:20:24.793Z,22.00
2019-01-30T13:22:55.179Z,21.10
2019-01-30T13:25:33.644Z,18.53
2019-01-30T13:28:04.078Z,21.27
2019-01-30T13:30:39.403Z,23.03
2019-01-30T13:33:11.015Z,21.57
2019-01-30T13:35:41.518Z,21.13
2019-01-30T13:38:11.964Z,25.73
2019-01-30T13:40:42.888Z,22.47
2019-01-30T13:43:13.226Z,27.60
2019-01-30T13:45:43.602Z,22.60
2019-01-30T13:48:18.974Z,23.83
2019-01-30T13:50:49.418Z,26.80
2019-01-30T13:53:19.762Z,25.77
2019-01-30T13:55:50.150Z,29.00
2019-01-30T13:58:20.502Z,33.17
2019-01-30T14:00:50.962Z,26.20
2019-01-30T14:03:21.270Z,29.20
2019-01-30T14:05:51.638Z,27.13
2019-01-30T14:08:22.034Z,27.07
2019-01-30T14:10:52.424Z,30.77
2019-01-30T14:13:22.779Z,31.47
2019-01-30T14:15:53.157Z,29.47
2019-01-30T14:18:23.884Z,31.37
2019-01-30T14:20:54.215Z,27.83
2019-01-30T14:23:24.611Z,32.53
2019-01-30T14:25:54.970Z,33.67
2019-01-30T14:28:25.486Z,31.63
2019-01-30T14:30:56.267Z,30.07
2019-01-30T14:33:26.645Z,35.90
2019-01-30T14:35:56.996Z,33.53
2019-01-30T14:38:27.487Z,30.10
2019-01-30T14:40:57.824Z,26.30
2019-01-30T14:43:28.318Z,28.60
2019-01-30T14:45:58.672Z,31.07
2019-01-30T14:48:29.171Z,32.90
2019-01-30T14:50:59.481Z,30.73
2019-01-30T14:53:30.029Z,33.80
2019-01-30T14:56:00.369Z,31.17
2019-01-30T14:58:30.704Z,29.33
2019-01-30T15:01:01.078Z,31.20
2019-01-30T15:03:31.432Z,29.50
2019-01-30T15:06:02.347Z,32.13
2019-01-30T15:08:32.642Z,29.00
2019-01-30T15:11:03.210Z,29.37
2019-01-30T15:13:33.593Z,33.90
2019-01-30T15:16:04.030Z,33.80
2019-01-30T15:18:34.338Z,26.10
2019-01-30T15:21:05.093Z,29.17
2019-01-30T15:23:35.491Z,31.93
2019-01-30T15:26:05.965Z,30.50
2019-01-30T15:28:36.323Z,30.90
2019-01-30T15:31:06.814Z,32.30
2019-01-30T15:33:37.199Z,29.70
2019-01-30T15:36:12.195Z,30.83
2019-01-30T15:38:42.602Z,30.40
2019-01-30T15:41:13.106Z,33.67
2019-01-30T15:43:43.467Z,31.77
2019-01-30T15:46:13.957Z,31.80
2019-01-30T15:48:44.416Z,34.47
2019-01-30T15:51:14.954Z,29.27
2019-01-30T15:53:45.291Z,28.00
2019-01-30T15:56:15.674Z,32.60
2019-01-30T15:58:46.038Z,29.17
2019-01-30T16:01:27.286Z,31.87
2019-01-30T16:03:57.626Z,24.83
2019-01-30T16:06:28.028Z,27.70
2019-01-30T16:08:58.378Z,28.57
2019-01-30T16:11:28.745Z,27.23
2019-01-30T16:13:59.114Z,26.03
2019-01-30T16:16:29.473Z,28.20
2019-01-30T16:18:59.850Z,24.37
2019-01-30T16:21:30.210Z,24.60
2019-01-30T16:24:00.662Z,24.73
2019-01-30T16:26:31.005Z,19.73
2019-01-30T16:29:01.411Z,22.00
2019-01-30T16:31:32.042Z,23.57
2019-01-30T16:34:02.798Z,24.60
2019-01-30T16:36:33.163Z,22.00
2019-01-30T16:39:04.782Z,21.97
2019-01-30T16:41:35.668Z,24.33
2019-01-30T16:44:06.217Z,24.03
2019-01-30T16:46:36.564Z,21.67
2019-01-30T16:49:07.047Z,22.23
2019-01-30T16:51:37.487Z,24.00
2019-01-30T16:54:07.892Z,22.53
2019-01-30T16:56:38.258Z,21.37
2019-01-30T16:59:08.606Z,24.17
2019-01-30T17:01:39.043Z,19.67
2019-01-30T17:04:09.767Z,23.83
2019-01-30T17:06:40.163Z,22.00
2019-01-30T17:09:10.619Z,24.20
2019-01-30T17:11:41.126Z,23.90
2019-01-30T17:14:11.474Z,21.13
2019-01-30T17:16:43.410Z,23.27
2019-01-30T17:19:13.762Z,25.33
2019-01-30T17:21:44.516Z,25.23
2019-01-30T17:24:14.871Z,28.07
2019-01-30T17:26:45.674Z,23.43
2019-01-30T17:29:17.498Z,23.03
2019-01-30T17:31:48.020Z,26.10
2019-01-30T17:34:18.392Z,24.13
2019-01-30T17:36:48.766Z,26.23
2019-01-30T17:39:19.144Z,24.13
2019-01-30T17:41:49.495Z,24.50
2019-01-30T17:44:19.877Z,22.67
2019-01-30T17:46:50.229Z,26.10
2019-01-30T17:49:20.603Z,24.03
2019-01-30T17:51:50.962Z,24.40
2019-01-30T17:54:21.417Z,17.17
2019-01-30T17:56:51.762Z,31.20
2019-01-30T17:59:22.164Z,25.47
2019-01-30T18:01:52.512Z,31.33
2019-01-30T18:04:22.918Z,27.33
2019-01-30T18:06:53.265Z,33.13
2019-01-30T18:09:23.662Z,27.03
2019-01-30T18:11:54.026Z,30.60
2019-01-30T18:14:24.374Z,31.70
2019-01-30T18:16:54.735Z,31.50
2019-01-30T18:19:25.078Z,31.50
2019-01-30T18:21:55.573Z,27.40
2019-01-30T18:24:25.924Z,29.03
2019-01-30T18:26:56.366Z,30.40
2019-01-30T18:29:27.804Z,30.00
2019-01-30T18:31:58.339Z,30.77
2019-01-30T18:34:29.746Z,30.80
2019-01-30T18:37:00.146Z,30.93
2019-01-30T18:39:30.496Z,33.03
2019-01-30T18:42:00.964Z,36.40
2019-01-30T18:44:31.307Z,36.27
2019-01-30T18:47:01.699Z,35.27
2019-01-30T18:49:32.059Z,33.50
2019-01-30T18:52:02.533Z,33.80
2019-01-30T18:54:32.889Z,31.83
2019-01-30T18:57:03.353Z,40.57
2019-01-30T18:59:33.690Z,35.47
2019-01-30T19:02:04.195Z,34.20
2019-01-30T19:04:34.535Z,38.43
2019-01-30T19:07:04.975Z,35.67
2019-01-30T19:09:35.324Z,35.47
2019-01-30T19:12:05.682Z,34.93
2019-01-30T19:14:36.062Z,38.50
2019-01-30T19:17:06.411Z,35.73
2019-01-30T19:19:36.782Z,43.83
2019-01-30T19:22:10.068Z,40.70
2019-01-30T19:24:39.788Z,39.63
2019-01-30T19:27:10.274Z,40.33
2019-01-30T19:29:40.608Z,43.67
2019-01-30T19:32:11.116Z,43.93
2019-01-30T19:34:41.470Z,39.67
2019-01-30T19:37:11.855Z,38.37
2019-01-30T19:39:42.194Z,45.37
2019-01-30T19:42:12.565Z,42.37
2019-01-30T19:44:42.926Z,34.93
2019-01-30T19:47:13.311Z,41.37
2019-01-30T19:49:43.662Z,42.73
2019-01-30T19:52:14.002Z,45.10
2019-01-30T19:54:44.362Z,42.60
2019-01-30T19:57:15.770Z,47.23
2019-01-30T19:59:46.134Z,43.13
2019-01-30T20:02:16.483Z,43.57
2019-01-30T20:04:47.919Z,44.83
2019-01-30T20:07:18.254Z,47.43
2019-01-30T20:09:49.887Z,45.33
2019-01-30T20:12:20.217Z,47.53
2019-01-30T20:14:51.847Z,40.93
2019-01-30T20:17:22.190Z,48.87
2019-01-30T20:19:52.554Z,44.23
2019-01-30T20:22:22.910Z,50.67
2019-01-30T20:24:53.299Z,52.50
2019-01-30T20:27:23.635Z,51.73
2019-01-30T20:29:54.079Z,47.17
2019-01-30T20:32:24.663Z,46.80
2019-01-30T20:34:54.982Z,49.47
2019-01-30T20:37:26.493Z,52.53
2019-01-30T20:39:56.907Z,51.53
2019-01-30T20:42:27.375Z,54.73
2019-01-30T20:44:57.698Z,49.43
2019-01-30T20:47:28.082Z,49.10
2019-01-30T20:49:58.415Z,52.93
2019-01-30T20:52:28.779Z,53.77
2019-01-30T20:55:00.175Z,50.97
2019-01-30T20:57:30.814Z,52.73
2019-01-30T21:00:01.163Z,52.27
2019-01-30T21:02:32.625Z,52.50
2019-01-30T21:05:02.958Z,57.13
2019-01-30T21:07:37.359Z,52.60
2019-01-30T21:10:06.942Z,54.57
2019-01-30T21:12:37.682Z,55.97
2019-01-30T21:15:09.762Z,57.43
2019-01-30T21:17:40.582Z,60.37
2019-01-30T21:20:11.274Z,53.03
2019-01-30T21:22:42.130Z,52.97
2019-01-30T21:25:15.152Z,59.03
2019-01-30T21:27:45.538Z,54.07
2019-01-30T21:30:19.083Z,57.20
2019-01-30T21:32:49.601Z,59.67
2019-01-30T21:35:19.955Z,59.00
2019-01-30T21:37:50.354Z,55.90
2019-01-30T21:40:20.722Z,61.63
2019-01-30T21:42:52.493Z,60.67
2019-01-30T21:45:23.902Z,58.17
2019-01-30T21:47:54.287Z,55.87
2019-01-30T21:50:24.743Z,58.07
2019-01-30T21:52:55.122Z,57.87
2019-01-30T21:55:25.570Z,64.83
2019-01-30T21:57:56.334Z,58.57
2019-01-30T22:00:28.607Z,58.47
2019-01-30T22:02:59.082Z,63.10
2019-01-30T22:05:29.416Z,64.97
2019-01-30T22:08:01.246Z,66.37
2019-01-30T22:10:31.850Z,58.67
2019-01-30T22:13:21.260Z,58.67
2019-01-30T22:15:51.603Z,64.43
2019-01-30T22:18:22.990Z,68.20
2019-01-30T22:20:53.398Z,67.57
2019-01-30T22:23:23.767Z,58.93
2019-01-30T22:25:54.134Z,65.70
2019-01-30T22:28:24.474Z,66.67
2019-01-30T22:30:54.846Z,64.77
2019-01-30T22:33:25.442Z,63.43
2019-01-30T22:35:55.827Z,63.70
2019-01-30T22:38:26.186Z,62.77
2019-01-30T22:40:56.570Z,62.37
2019-01-30T22:43:26.958Z,68.93
2019-01-30T22:45:57.571Z,68.87
2019-01-30T22:48:27.911Z,68.03
2019-01-30T22:50:58.359Z,67.27
2019-01-30T22:53:28.693Z,66.33
2019-01-30T22:55:59.075Z,65.03
2019-01-30T22:58:29.414Z,64.40
2019-01-30T23:01:40.733Z,67.37
2019-01-30T23:04:35.398Z,60.20
2019-01-30T23:07:39.880Z,63.63
2019-01-30T23:10:54.726Z,66.10
2019-01-30T23:14:01.814Z,69.30
2019-01-30T23:17:07.972Z,68.17
2019-01-30T23:20:01.381Z,65.60
2019-01-30T23:22:57.882Z,65.13
2019-01-30T23:25:51.584Z,65.33
2019-01-30T23:28:47.781Z,71.20
2019-01-30T23:31:45.166Z,67.40
2019-01-30T23:34:40.562Z,67.20
2019-01-30T23:37:47.779Z,70.47
2019-01-30T23:40:49.005Z,70.33
2019-01-30T23:43:45.362Z,69.20
2019-01-30T23:47:05.918Z,73.47
2019-01-30T23:50:21.963Z,71.20
2019-01-30T23:53:21.013Z,72.87
2019-01-30T23:56:38.293Z,69.07
2019-01-30T23:59:19.950Z,68.20
